Fs Philippine — FMDU — position and weather

sailwx.info

Track history (hours):
 
Tides and Currents Weather Stations Pressure Air Temp Water Temp Dewpoint Dewpoint Depression Visibility Wind Speed Wind Dir Waves Ship Positions

Fs Philippine

Last reported at 2014-Nov-22 13:32 UTC. Time now 2014-Nov-24 22:45 UTC.
Position N 32°20' W 017°30'.

Length 139 m; draft 6.5 m.

Type: Ship (hazmat cat C). MMSI: 228320800.

Date/timePositionNaut miles runAvg speedWind from/ knotsBaromVisibWave heightAir tempDewpointWater temp
2014-Nov-22 13:32N 32°20' W 017°30'1212.5
2014-Nov-22 12:33N 32°26' W 017°17'1312.6
2014-Nov-22 11:33N 32°32' W 017°04'1313.0
2014-Nov-22 10:33N 32°36' W 016°49'60312.8
2014-Nov-20 11:24N 36°04' W 005°24'2 0.2
2014-Nov-20 02:33N 36°06' W 005°25'0 0.1
2014-Nov-20 01:33N 36°06' W 005°25'0 0.0
2014-Nov-20 00:33N 36°06' W 005°25'0 0.0
2014-Nov-19 23:33N 36°06' W 005°25'0 0.0
2014-Nov-19 22:33N 36°06' W 005°25'0 0.1
2014-Nov-19 21:33N 36°06' W 005°25'0 0.1
2014-Nov-19 20:33N 36°06' W 005°25'0 0.1
2014-Nov-19 19:33N 36°06' W 005°25'0 0.0
2014-Nov-19 14:06N 36°06' W 005°25'0 0.0
2014-Nov-19 13:33N 36°06' W 005°25'0 0.1
2014-Nov-19 12:33N 36°06' W 005°25'1 0.6
2014-Nov-19 11:33N 36°06' W 005°24'5 5.1
2014-Nov-19 10:33N 36°05' W 005°18'2 0.5
2014-Nov-19 06:34N 36°03' W 005°19'  
2014-Nov-16 07:11N 38°17' E 012°34'711.8
2014-Nov-16 06:33N 38°18' E 012°43'1111.5
2014-Nov-16 05:33N 38°20' E 012°58'1211.6
2014-Nov-16 04:33N 38°21' E 013°12'1211.6
2014-Nov-16 03:33N 38°22' E 013°27'1111.4
2014-Nov-16 02:33N 38°21' E 013°42'1111.1
2014-Nov-16 01:33N 38°21' E 013°56'1211.5
2014-Nov-16 00:32N 38°19' E 014°11'73 8.9
2014-Nov-15 16:22N 37°56' E 015°38'1413.3
2014-Nov-15 15:19N 37°50' E 015°54'  
Track history (hours):
 
Tides and Currents Weather Stations Pressure Air Temp Water Temp Dewpoint Dewpoint Depression Visibility Wind Speed Wind Dir Waves Ship Positions

Fs Philippine

Last reported at 2014-Nov-22 13:32 UTC. Time now 2014-Nov-24 22:45 UTC.
Position N 32°20' W 017°30'.

Length 139 m; draft 6.5 m.

Type: Ship (hazmat cat C). MMSI: 228320800.

Date/timePositionNaut miles runAvg speedWind from/ knotsBaromVisibWave heightAir tempDewpointWater temp
2014-Nov-22 13:32N 32°20' W 017°30'1212.5
2014-Nov-22 12:33N 32°26' W 017°17'1312.6
2014-Nov-22 11:33N 32°32' W 017°04'1313.0
2014-Nov-22 10:33N 32°36' W 016°49'60312.8
2014-Nov-20 11:24N 36°04' W 005°24'2 0.2
2014-Nov-20 02:33N 36°06' W 005°25'0 0.1
2014-Nov-20 01:33N 36°06' W 005°25'0 0.0
2014-Nov-20 00:33N 36°06' W 005°25'0 0.0
2014-Nov-19 23:33N 36°06' W 005°25'0 0.0
2014-Nov-19 22:33N 36°06' W 005°25'0 0.1
2014-Nov-19 21:33N 36°06' W 005°25'0 0.1
2014-Nov-19 20:33N 36°06' W 005°25'0 0.1
2014-Nov-19 19:33N 36°06' W 005°25'0 0.0
2014-Nov-19 14:06N 36°06' W 005°25'0 0.0
2014-Nov-19 13:33N 36°06' W 005°25'0 0.1
2014-Nov-19 12:33N 36°06' W 005°25'1 0.6
2014-Nov-19 11:33N 36°06' W 005°24'5 5.1
2014-Nov-19 10:33N 36°05' W 005°18'2 0.5
2014-Nov-19 06:34N 36°03' W 005°19'  
2014-Nov-16 07:11N 38°17' E 012°34'711.8
2014-Nov-16 06:33N 38°18' E 012°43'1111.5
2014-Nov-16 05:33N 38°20' E 012°58'1211.6
2014-Nov-16 04:33N 38°21' E 013°12'1211.6
2014-Nov-16 03:33N 38°22' E 013°27'1111.4
2014-Nov-16 02:33N 38°21' E 013°42'1111.1
2014-Nov-16 01:33N 38°21' E 013°56'1211.5
2014-Nov-16 00:32N 38°19' E 014°11'73 8.9
2014-Nov-15 16:22N 37°56' E 015°38'1413.3
2014-Nov-15 15:19N 37°50' E 015°54'  

Dump ship's entire track history